createdAt,value
2018-08-09T00:00:06.703Z,20.19
2018-08-09T00:02:35.595Z,20.14
2018-08-09T00:05:05.083Z,20.03
2018-08-09T00:07:33.967Z,20.02
2018-08-09T00:10:02.928Z,19.96
2018-08-09T00:12:31.926Z,19.85
2018-08-09T00:15:00.827Z,19.95
2018-08-09T00:17:30.275Z,19.93
2018-08-09T00:19:59.246Z,19.92
2018-08-09T00:22:28.147Z,19.96
2018-08-09T00:24:57.144Z,19.99
2018-08-09T00:27:26.019Z,19.87
2018-08-09T00:29:54.983Z,19.88
2018-08-09T00:32:23.871Z,19.83
2018-08-09T00:34:52.779Z,19.77
2018-08-09T00:37:21.785Z,19.90
2018-08-09T00:39:50.694Z,19.91
2018-08-09T00:42:19.727Z,19.99
2018-08-09T00:44:48.925Z,19.98
2018-08-09T00:47:17.843Z,20.01
2018-08-09T00:49:46.739Z,19.97
2018-08-09T00:52:15.726Z,20.00
2018-08-09T00:54:44.603Z,19.75
2018-08-09T00:57:13.535Z,19.62
2018-08-09T00:59:42.426Z,19.58
2018-08-09T01:02:12.028Z,19.55
2018-08-09T01:04:40.947Z,19.66
2018-08-09T01:07:09.875Z,19.64
2018-08-09T01:09:38.934Z,19.63
2018-08-09T01:12:07.879Z,19.57
2018-08-09T01:14:36.824Z,19.55
2018-08-09T01:17:05.808Z,19.59
2018-08-09T01:19:34.825Z,19.54
2018-08-09T01:22:03.846Z,19.64
2018-08-09T01:24:32.767Z,19.63
2018-08-09T01:27:01.767Z,19.58
2018-08-09T01:29:30.782Z,19.61
2018-08-09T01:31:59.649Z,19.55
2018-08-09T01:34:28.539Z,19.49
2018-08-09T01:36:57.463Z,19.54
2018-08-09T01:39:31.867Z,19.60
2018-08-09T01:42:12.273Z,19.58
2018-08-09T01:44:41.215Z,19.71
2018-08-09T01:47:10.199Z,19.72
2018-08-09T01:49:39.104Z,19.65
2018-08-09T01:52:08.021Z,19.73
2018-08-09T01:54:36.957Z,19.74
2018-08-09T01:57:05.861Z,19.73
2018-08-09T01:59:34.825Z,19.59
2018-08-09T02:02:03.819Z,19.50
2018-08-09T02:04:32.737Z,19.49
2018-08-09T02:07:07.344Z,19.46
2018-08-09T02:09:41.720Z,19.50
2018-08-09T02:12:10.639Z,19.48
2018-08-09T02:14:39.558Z,19.49
2018-08-09T02:17:08.495Z,19.42
2018-08-09T02:19:37.459Z,19.41
2018-08-09T02:22:06.427Z,19.32
2018-08-09T02:24:35.373Z,19.37
2018-08-09T02:27:04.342Z,19.32
2018-08-09T02:29:33.263Z,19.33
2018-08-09T02:32:02.246Z,19.26
2018-08-09T02:34:31.200Z,19.28
2018-08-09T02:37:00.083Z,19.26
2018-08-09T02:39:28.999Z,19.35
2018-08-09T02:41:57.912Z,19.35
2018-08-09T02:44:26.860Z,19.38
2018-08-09T02:46:55.784Z,19.30
2018-08-09T02:49:24.740Z,19.36
2018-08-09T02:51:53.616Z,19.41
2018-08-09T02:54:22.533Z,19.45
2018-08-09T02:56:51.466Z,19.33
2018-08-09T02:59:20.384Z,19.32
2018-08-09T03:01:55.916Z,19.36
2018-08-09T03:04:24.916Z,19.22
2018-08-09T03:06:53.820Z,19.31
2018-08-09T03:09:22.751Z,19.38
2018-08-09T03:11:51.682Z,19.40
2018-08-09T03:14:20.589Z,19.35
2018-08-09T03:16:49.515Z,19.32
2018-08-09T03:19:18.447Z,19.30
2018-08-09T03:21:47.347Z,19.32
2018-08-09T03:24:16.499Z,19.44
2018-08-09T03:26:45.340Z,19.47
2018-08-09T03:29:14.232Z,19.65
2018-08-09T03:31:43.119Z,19.83
2018-08-09T03:34:12.011Z,19.82
2018-08-09T03:36:43.849Z,19.76
2018-08-09T03:39:13.271Z,19.58
2018-08-09T03:41:42.181Z,19.66
2018-08-09T03:44:11.111Z,19.73
2018-08-09T03:46:40.055Z,19.77
2018-08-09T03:49:09.023Z,19.71
2018-08-09T03:51:37.952Z,19.63
2018-08-09T03:54:06.897Z,19.57
2018-08-09T03:56:35.797Z,19.47
2018-08-09T03:59:04.679Z,19.51
2018-08-09T04:01:33.660Z,19.39
2018-08-09T04:04:02.575Z,19.39
2018-08-09T04:06:31.492Z,19.57
2018-08-09T04:09:01.205Z,19.44
2018-08-09T04:11:30.125Z,19.35
2018-08-09T04:13:59.121Z,19.27
2018-08-09T04:16:28.014Z,19.26
2018-08-09T04:18:56.957Z,19.47
2018-08-09T04:21:25.916Z,19.30
2018-08-09T04:23:54.821Z,19.20
2018-08-09T04:26:23.727Z,18.96
2018-08-09T04:28:52.651Z,18.78
2018-08-09T04:31:21.580Z,18.76
2018-08-09T04:33:51.179Z,18.66
2018-08-09T04:36:20.157Z,18.59
2018-08-09T04:38:49.083Z,18.60
2018-08-09T04:41:18.052Z,18.53
2018-08-09T04:43:46.965Z,18.61
2018-08-09T04:46:15.946Z,18.81
2018-08-09T04:48:50.468Z,18.86
2018-08-09T04:51:19.404Z,18.91
2018-08-09T04:53:48.319Z,19.11
2018-08-09T04:56:17.241Z,19.04
2018-08-09T04:58:46.172Z,19.08
2018-08-09T05:01:15.054Z,19.07
2018-08-09T05:03:43.980Z,19.02
2018-08-09T05:06:14.702Z,19.03
2018-08-09T05:08:43.585Z,19.10
2018-08-09T05:11:12.542Z,19.23
2018-08-09T05:13:41.467Z,19.26
2018-08-09T05:16:10.411Z,19.28
2018-08-09T05:18:39.387Z,19.22
2018-08-09T05:21:08.775Z,19.15
2018-08-09T05:23:37.720Z,19.20
2018-08-09T05:26:06.972Z,19.15
2018-08-09T05:28:36.947Z,19.26
2018-08-09T05:31:05.920Z,19.29
2018-08-09T05:33:34.927Z,19.22
2018-08-09T05:36:03.914Z,19.17
2018-08-09T05:38:32.956Z,19.17
2018-08-09T05:41:01.883Z,19.20
2018-08-09T05:43:30.847Z,19.17
2018-08-09T05:45:59.767Z,19.21
2018-08-09T05:48:28.808Z,19.31
2018-08-09T05:50:57.840Z,19.53
2018-08-09T05:53:26.742Z,19.50
2018-08-09T05:55:55.689Z,19.49
2018-08-09T05:58:24.659Z,19.47
2018-08-09T06:00:53.700Z,19.53
2018-08-09T06:03:22.676Z,19.65
2018-08-09T06:05:51.663Z,19.73
2018-08-09T06:08:20.572Z,19.71
2018-08-09T06:10:49.553Z,19.71
2018-08-09T06:13:18.479Z,19.63
2018-08-09T06:15:47.445Z,19.65
2018-08-09T06:18:16.383Z,19.76
2018-08-09T06:20:45.339Z,19.88
2018-08-09T06:23:14.406Z,19.91
2018-08-09T06:25:43.364Z,19.83
2018-08-09T06:28:12.404Z,19.92
2018-08-09T06:30:41.360Z,19.99
2018-08-09T06:33:10.296Z,19.94
2018-08-09T06:35:39.752Z,20.10
2018-08-09T06:38:08.697Z,20.26
2018-08-09T06:40:37.715Z,20.39
2018-08-09T06:43:06.695Z,20.37
2018-08-09T06:45:35.617Z,20.43
2018-08-09T06:48:04.597Z,20.65
2018-08-09T06:50:33.504Z,20.54
2018-08-09T06:53:02.489Z,20.49
2018-08-09T06:55:31.407Z,20.50
2018-08-09T06:58:00.324Z,20.59
2018-08-09T07:00:43.033Z,20.50
2018-08-09T07:03:11.962Z,20.52
2018-08-09T07:05:40.877Z,20.66
2018-08-09T07:08:09.875Z,20.62
2018-08-09T07:10:38.872Z,20.65
2018-08-09T07:13:07.836Z,20.71
2018-08-09T07:15:36.897Z,20.48
2018-08-09T07:18:06.096Z,20.56
2018-08-09T07:20:35.135Z,20.50
2018-08-09T07:23:04.254Z,20.44
2018-08-09T07:25:33.416Z,20.50
2018-08-09T07:28:02.983Z,20.55
2018-08-09T07:30:32.207Z,20.67
2018-08-09T07:33:01.258Z,20.64
2018-08-09T07:35:30.238Z,20.79
2018-08-09T07:37:59.487Z,20.86
2018-08-09T07:40:28.543Z,20.79
2018-08-09T07:42:57.679Z,20.82
2018-08-09T07:45:26.628Z,20.82
2018-08-09T07:47:55.628Z,20.89
2018-08-09T07:50:24.651Z,20.89
2018-08-09T07:52:53.602Z,20.77
2018-08-09T07:55:22.598Z,20.68
2018-08-09T07:57:52.660Z,20.71
2018-08-09T08:00:21.608Z,20.72
2018-08-09T08:02:50.634Z,20.70
2018-08-09T08:05:19.696Z,20.82
2018-08-09T08:07:48.847Z,20.74
2018-08-09T08:10:17.847Z,20.78
2018-08-09T08:12:46.896Z,20.89
2018-08-09T08:15:16.008Z,21.11
2018-08-09T08:17:45.048Z,21.16
2018-08-09T08:20:14.064Z,21.11
2018-08-09T08:22:43.006Z,21.28
2018-08-09T08:25:11.972Z,21.31
2018-08-09T08:27:40.960Z,21.16
2018-08-09T08:30:12.089Z,21.18
2018-08-09T08:32:41.846Z,21.19
2018-08-09T08:35:11.181Z,21.10
2018-08-09T08:37:40.832Z,21.16
2018-08-09T08:40:10.492Z,21.19
2018-08-09T08:42:39.607Z,21.31
2018-08-09T08:45:11.348Z,21.35
2018-08-09T08:47:40.453Z,21.26
2018-08-09T08:50:09.612Z,21.27
2018-08-09T08:52:39.666Z,21.27
2018-08-09T08:55:10.248Z,21.34
2018-08-09T08:57:39.442Z,21.48
2018-08-09T09:00:10.502Z,21.57
2018-08-09T09:02:40.414Z,21.63
2018-08-09T09:05:11.552Z,21.68
2018-08-09T09:07:46.019Z,21.59
2018-08-09T09:10:20.475Z,21.32
2018-08-09T09:12:49.439Z,21.42
2018-08-09T09:15:18.430Z,21.54
2018-08-09T09:17:47.439Z,21.56
2018-08-09T09:20:18.020Z,21.45
2018-08-09T09:22:46.971Z,21.46
2018-08-09T09:25:15.974Z,21.51
2018-08-09T09:27:45.015Z,21.38
2018-08-09T09:30:16.487Z,21.51
2018-08-09T09:32:45.955Z,21.40
2018-08-09T09:35:14.950Z,21.50
2018-08-09T09:37:49.551Z,21.47
2018-08-09T09:40:24.071Z,21.37
2018-08-09T09:42:53.020Z,21.53
2018-08-09T09:45:22.123Z,21.52
2018-08-09T09:47:51.136Z,21.58
2018-08-09T09:50:20.048Z,21.77
2018-08-09T09:52:51.137Z,21.57
2018-08-09T09:55:20.072Z,21.53
2018-08-09T09:57:49.042Z,21.57
2018-08-09T10:00:23.355Z,21.71
2018-08-09T10:02:52.399Z,21.81
2018-08-09T10:05:21.310Z,21.93
2018-08-09T10:07:50.364Z,21.86
2018-08-09T10:10:19.662Z,21.89
2018-08-09T10:12:48.698Z,21.97
2018-08-09T10:15:17.718Z,21.95
2018-08-09T10:17:46.749Z,21.88
2018-08-09T10:20:15.744Z,21.92
2018-08-09T10:22:44.742Z,21.88
2018-08-09T10:25:13.695Z,21.84
2018-08-09T10:27:42.682Z,21.81
2018-08-09T10:30:11.607Z,21.74
2018-08-09T10:32:40.530Z,21.80
2018-08-09T10:35:09.661Z,21.79
2018-08-09T10:37:38.903Z,21.82
2018-08-09T10:40:07.905Z,21.84
2018-08-09T10:42:36.953Z,21.78
2018-08-09T10:45:06.023Z,21.70
2018-08-09T10:47:35.160Z,21.65
2018-08-09T10:50:04.242Z,21.59
2018-08-09T10:52:33.347Z,21.62
2018-08-09T10:55:02.251Z,21.61
2018-08-09T10:57:31.185Z,21.61
2018-08-09T11:00:00.194Z,21.69
2018-08-09T11:02:29.190Z,21.62
2018-08-09T11:04:58.113Z,21.64
2018-08-09T11:07:27.043Z,21.60
2018-08-09T11:09:58.048Z,21.58
2018-08-09T11:12:27.030Z,21.62
2018-08-09T11:14:56.024Z,21.58
2018-08-09T11:17:24.915Z,21.55
2018-08-09T11:19:53.939Z,21.62
2018-08-09T11:22:22.863Z,21.61
2018-08-09T11:24:51.789Z,21.69
2018-08-09T11:27:20.807Z,21.69
2018-08-09T11:29:49.829Z,21.69
2018-08-09T11:32:18.743Z,21.67
2018-08-09T11:34:47.781Z,21.70
2018-08-09T11:37:22.321Z,21.74
2018-08-09T11:39:56.683Z,21.80
2018-08-09T11:42:25.617Z,21.80
2018-08-09T11:44:54.525Z,21.71
2018-08-09T11:47:29.133Z,21.62
2018-08-09T11:49:58.202Z,21.59
2018-08-09T11:52:27.117Z,21.43
2018-08-09T11:54:56.031Z,21.41
2018-08-09T11:57:24.943Z,21.45
2018-08-09T11:59:53.867Z,21.51
2018-08-09T12:02:22.797Z,21.39
2018-08-09T12:04:51.767Z,21.30
2018-08-09T12:07:20.812Z,21.34
2018-08-09T12:10:52.761Z,21.41
2018-08-09T12:13:21.753Z,21.36
2018-08-09T12:15:50.803Z,21.31
2018-08-09T12:18:20.233Z,21.33
2018-08-09T12:20:49.190Z,21.31
2018-08-09T12:23:18.142Z,21.21
2018-08-09T12:25:47.186Z,20.92
2018-08-09T12:28:16.246Z,20.70
2018-08-09T12:30:45.176Z,20.59
2018-08-09T12:33:14.260Z,20.45
2018-08-09T12:35:43.198Z,20.41
2018-08-09T12:38:12.080Z,20.39
2018-08-09T12:40:41.091Z,20.48
2018-08-09T12:43:10.792Z,20.46
2018-08-09T12:45:39.969Z,20.44
2018-08-09T12:48:08.963Z,20.56
2018-08-09T12:50:37.999Z,20.63
2018-08-09T12:53:06.927Z,20.79
2018-08-09T12:55:35.880Z,20.49
2018-08-09T12:58:10.346Z,20.37
2018-08-09T13:00:44.869Z,20.48
2018-08-09T13:03:13.840Z,20.59
2018-08-09T13:05:42.902Z,20.65
2018-08-09T13:08:11.953Z,20.77
2018-08-09T13:10:41.014Z,20.35
2018-08-09T13:13:10.047Z,20.22
2018-08-09T13:15:39.009Z,20.17
2018-08-09T13:18:08.247Z,20.22
2018-08-09T13:20:37.181Z,20.23
2018-08-09T13:23:06.120Z,20.09
2018-08-09T13:25:35.157Z,20.21
2018-08-09T13:28:04.127Z,20.10
2018-08-09T13:30:33.117Z,19.96
2018-08-09T13:33:02.202Z,19.96
2018-08-09T13:35:31.427Z,20.07
2018-08-09T13:38:00.398Z,20.06
2018-08-09T13:40:29.424Z,20.22
2018-08-09T13:42:58.478Z,20.31
2018-08-09T13:45:27.516Z,20.15
2018-08-09T13:47:56.457Z,20.29
2018-08-09T13:50:25.423Z,20.30
2018-08-09T13:52:54.311Z,20.23
2018-08-09T13:55:23.269Z,20.25
2018-08-09T13:57:52.327Z,20.29
2018-08-09T14:00:21.288Z,20.30
2018-08-09T14:02:50.235Z,20.18
2018-08-09T14:05:19.239Z,19.99
2018-08-09T14:07:48.170Z,19.95
2018-08-09T14:10:22.673Z,19.76
2018-08-09T14:12:51.558Z,19.61
2018-08-09T14:15:20.505Z,19.70
2018-08-09T14:17:49.688Z,19.87
2018-08-09T14:20:18.881Z,19.89
2018-08-09T14:22:47.865Z,20.00
2018-08-09T14:25:16.888Z,19.89
2018-08-09T14:27:45.849Z,19.74
2018-08-09T14:30:18.018Z,19.92
2018-08-09T14:32:46.959Z,19.97
2018-08-09T14:35:19.424Z,20.02
2018-08-09T14:37:48.505Z,20.13
2018-08-09T14:40:17.427Z,20.24
2018-08-09T14:42:49.791Z,20.14
2018-08-09T14:45:18.797Z,20.18
2018-08-09T14:47:48.926Z,20.09
2018-08-09T14:50:17.807Z,20.19
2018-08-09T14:52:46.763Z,20.09
2018-08-09T14:55:15.672Z,20.05
2018-08-09T14:57:44.680Z,20.05
2018-08-09T15:00:16.492Z,20.07
2018-08-09T15:02:46.118Z,20.23
2018-08-09T15:05:16.678Z,20.27
2018-08-09T15:07:51.211Z,20.23
2018-08-09T15:10:21.268Z,20.35
2018-08-09T15:12:51.045Z,20.39
2018-08-09T15:15:20.139Z,20.29
2018-08-09T15:17:49.117Z,20.28
2018-08-09T15:20:19.363Z,20.30
2018-08-09T15:22:49.344Z,20.41
2018-08-09T15:25:18.916Z,20.22
2018-08-09T15:27:48.057Z,20.30
2018-08-09T15:30:18.291Z,20.30
2018-08-09T15:32:47.722Z,20.37
2018-08-09T15:35:17.685Z,20.37
2018-08-09T15:37:46.672Z,20.30
2018-08-09T15:40:16.174Z,20.37
2018-08-09T15:42:45.214Z,20.26
2018-08-09T15:45:15.293Z,20.23
2018-08-09T15:47:44.390Z,20.25
2018-08-09T15:50:16.302Z,20.27
2018-08-09T15:52:45.443Z,20.31
2018-08-09T15:55:19.896Z,20.34
2018-08-09T15:57:49.065Z,20.41
2018-08-09T16:00:20.294Z,20.32
2018-08-09T16:02:49.373Z,20.40
2018-08-09T16:05:18.686Z,20.44
2018-08-09T16:07:49.211Z,20.41
2018-08-09T16:10:18.856Z,20.50
2018-08-09T16:12:48.919Z,20.67
2018-08-09T16:15:20.508Z,20.66
2018-08-09T16:17:50.111Z,20.59
2018-08-09T16:20:19.102Z,20.76
2018-08-09T16:22:48.094Z,20.87
2018-08-09T16:25:19.124Z,20.91
2018-08-09T16:27:50.065Z,20.79
2018-08-09T16:30:23.181Z,20.72
2018-08-09T16:32:52.905Z,20.73
2018-08-09T16:35:22.245Z,20.64
2018-08-09T16:37:51.658Z,20.70
2018-08-09T16:40:23.006Z,20.79
2018-08-09T16:42:52.094Z,20.66
2018-08-09T16:45:22.152Z,20.79
2018-08-09T16:47:52.080Z,20.64
2018-08-09T16:50:23.123Z,20.78
2018-08-09T16:52:52.490Z,20.86
2018-08-09T16:55:22.733Z,20.89
2018-08-09T16:57:51.758Z,20.89
2018-08-09T17:00:22.314Z,21.01
2018-08-09T17:02:52.580Z,21.05
2018-08-09T17:08:06.321Z,20.98
2018-08-09T17:10:42.670Z,21.03
2018-08-09T17:13:14.850Z,21.07
2018-08-09T17:15:48.592Z,20.92
2018-08-09T17:18:36.160Z,20.96
2018-08-09T17:21:08.389Z,21.08
2018-08-09T17:26:38.116Z,20.80
2018-08-09T17:29:09.150Z,20.69
2018-08-09T17:31:38.738Z,20.59
2018-08-09T17:34:12.230Z,20.60
2018-08-09T17:36:42.178Z,20.59
2018-08-09T17:39:12.430Z,20.48
2018-08-09T17:41:41.559Z,20.35
2018-08-09T17:44:12.498Z,19.91
2018-08-09T17:46:42.101Z,19.54
2018-08-09T17:49:11.218Z,19.28
2018-08-09T17:51:40.181Z,19.13
2018-08-09T17:54:09.880Z,19.17
2018-08-09T17:56:38.894Z,18.84
2018-08-09T17:59:07.872Z,18.84
2018-08-09T18:01:37.056Z,18.95
2018-08-09T18:04:06.244Z,18.89
2018-08-09T18:06:35.435Z,18.84
2018-08-09T18:09:07.756Z,18.76
2018-08-09T18:11:36.804Z,18.77
2018-08-09T18:14:08.011Z,18.88
2018-08-09T18:16:37.918Z,18.96
2018-08-09T18:19:07.474Z,18.95
2018-08-09T18:21:36.681Z,18.90
2018-08-09T18:24:05.921Z,18.95
2018-08-09T18:26:34.954Z,18.98
2018-08-09T18:29:04.313Z,18.99
2018-08-09T18:31:33.756Z,19.01
2018-08-09T18:34:04.793Z,18.97
2018-08-09T18:36:33.914Z,18.84
2018-08-09T18:39:06.610Z,18.94
2018-08-09T18:41:39.150Z,18.92
2018-08-09T18:44:08.160Z,18.74
2018-08-09T18:46:37.211Z,18.85
2018-08-09T18:49:06.290Z,18.90
2018-08-09T18:51:35.336Z,18.75
2018-08-09T18:54:06.396Z,18.66
2018-08-09T18:56:35.384Z,18.68
2018-08-09T18:59:04.468Z,18.73
2018-08-09T19:01:33.612Z,18.74
2018-08-09T19:04:02.581Z,18.75
2018-08-09T19:06:31.543Z,18.62
2018-08-09T19:09:01.826Z,18.61
2018-08-09T19:11:30.735Z,18.50
2018-08-09T19:13:59.775Z,18.54
2018-08-09T19:16:28.768Z,18.66
2018-08-09T19:18:58.029Z,18.56
2018-08-09T19:21:27.104Z,18.75
2018-08-09T19:23:56.118Z,18.83
2018-08-09T19:26:28.933Z,18.69
2018-08-09T19:28:57.995Z,18.81
2018-08-09T19:31:26.965Z,18.69
2018-08-09T19:33:56.009Z,18.65
2018-08-09T19:36:25.875Z,18.61
2018-08-09T19:38:55.298Z,18.58
2018-08-09T19:41:24.336Z,18.43
2018-08-09T19:43:53.414Z,18.34
2018-08-09T19:46:22.480Z,18.24
2018-08-09T19:48:56.981Z,18.38
2018-08-09T19:51:30.204Z,18.39
2018-08-09T19:53:59.429Z,18.39
2018-08-09T19:56:28.718Z,18.44
2018-08-09T19:58:57.745Z,18.31
2018-08-09T20:01:26.744Z,18.40
2018-08-09T20:03:55.703Z,18.28
2018-08-09T20:06:25.375Z,18.34
2018-08-09T20:08:54.312Z,18.34
2018-08-09T20:11:23.410Z,18.27
2018-08-09T20:13:52.449Z,18.22
2018-08-09T20:16:21.466Z,18.26
2018-08-09T20:18:50.530Z,18.33
2018-08-09T20:21:19.472Z,18.20
2018-08-09T20:23:48.372Z,18.29
2018-08-09T20:26:17.292Z,18.29
2018-08-09T20:28:46.283Z,18.36
2018-08-09T20:31:15.229Z,18.40
2018-08-09T20:33:44.259Z,18.26
2018-08-09T20:36:13.170Z,18.01
2018-08-09T20:38:42.191Z,18.14
2018-08-09T20:41:11.199Z,17.94
2018-08-09T20:43:40.065Z,17.89
2018-08-09T20:46:09.027Z,17.76
2018-08-09T20:48:37.956Z,17.67
2018-08-09T20:51:07.325Z,17.67
2018-08-09T20:53:36.292Z,17.45
2018-08-09T20:56:06.225Z,17.47
2018-08-09T20:58:35.207Z,17.59
2018-08-09T21:01:04.211Z,17.31
2018-08-09T21:03:33.252Z,17.25
2018-08-09T21:06:02.336Z,17.22
2018-08-09T21:08:31.271Z,16.89
2018-08-09T21:11:00.204Z,17.03
2018-08-09T21:13:29.172Z,17.03
2018-08-09T21:15:58.210Z,17.04
2018-08-09T21:18:27.265Z,16.91
2018-08-09T21:20:56.290Z,16.76
2018-08-09T21:23:25.270Z,16.85
2018-08-09T21:25:54.229Z,16.89
2018-08-09T21:28:23.238Z,16.82
2018-08-09T21:30:52.256Z,16.96
2018-08-09T21:33:21.221Z,16.98
2018-08-09T21:35:50.199Z,16.92
2018-08-09T21:38:19.105Z,17.14
2018-08-09T21:40:48.124Z,17.07
2018-08-09T21:43:17.008Z,17.07
2018-08-09T21:45:45.942Z,17.08
2018-08-09T21:48:14.863Z,17.24
2018-08-09T21:50:43.866Z,17.36
2018-08-09T21:53:12.778Z,17.29
2018-08-09T21:55:41.751Z,17.28
2018-08-09T21:58:11.562Z,17.30
2018-08-09T22:00:51.078Z,17.22
2018-08-09T22:03:22.077Z,17.16
2018-08-09T22:05:56.357Z,17.33
2018-08-09T22:08:30.574Z,17.35
2018-08-09T22:11:04.703Z,17.41
2018-08-09T22:13:38.859Z,17.48
2018-08-09T22:16:13.152Z,17.53
2018-08-09T22:18:47.398Z,17.38
2018-08-09T22:21:21.647Z,17.58
2018-08-09T22:23:50.613Z,17.52
2018-08-09T22:26:19.562Z,17.58
2018-08-09T22:28:48.496Z,17.59
2018-08-09T22:31:17.499Z,17.44
2018-08-09T22:33:46.675Z,17.57
2018-08-09T22:36:15.709Z,17.46
2018-08-09T22:38:44.672Z,17.51
2018-08-09T22:41:13.561Z,17.56
2018-08-09T22:43:42.492Z,17.47
2018-08-09T22:46:11.431Z,17.48
2018-08-09T22:48:40.341Z,17.44
2018-08-09T22:51:09.410Z,17.41
2018-08-09T22:53:38.445Z,17.46
2018-08-09T22:56:07.361Z,17.45
2018-08-09T22:58:36.257Z,17.38
2018-08-09T23:01:05.576Z,17.20
2018-08-09T23:03:34.546Z,17.30
2018-08-09T23:06:03.678Z,17.35
2018-08-09T23:08:32.599Z,17.39
2018-08-09T23:11:01.536Z,17.26
2018-08-09T23:13:30.467Z,17.18
2018-08-09T23:15:59.464Z,17.32
2018-08-09T23:18:28.485Z,17.40
2018-08-09T23:20:57.396Z,17.37
2018-08-09T23:23:26.313Z,17.32
2018-08-09T23:25:55.223Z,17.34
2018-08-09T23:28:24.151Z,17.43
2018-08-09T23:30:53.172Z,17.47
2018-08-09T23:33:23.017Z,17.45
2018-08-09T23:35:52.005Z,17.40
2018-08-09T23:38:21.051Z,17.50
2018-08-09T23:40:50.140Z,17.32
2018-08-09T23:43:19.078Z,17.43
2018-08-09T23:45:48.020Z,17.46
2018-08-09T23:48:17.039Z,17.27
2018-08-09T23:50:45.932Z,17.28
2018-08-09T23:53:14.899Z,17.29
2018-08-09T23:55:43.948Z,17.26
2018-08-09T23:58:12.884Z,17.32
